sensor_id;sensor_type;location;lat;lon;timestamp;P1;durP1;ratioP1;P2;durP2;ratioP2
46613;SDS011;32338;50.430;6.806;2023-09-19T00:02:27;2.85;;;0.95;;
46613;SDS011;32338;50.430;6.806;2023-09-19T00:04:54;3.42;;;1.05;;
46613;SDS011;32338;50.430;6.806;2023-09-19T00:07:21;5.97;;;1.20;;
46613;SDS011;32338;50.430;6.806;2023-09-19T00:09:47;5.00;;;1.40;;
46613;SDS011;32338;50.430;6.806;2023-09-19T00:12:14;5.45;;;1.08;;
46613;SDS011;32338;50.430;6.806;2023-09-19T00:14:41;2.38;;;1.10;;
46613;SDS011;32338;50.430;6.806;2023-09-19T00:17:07;2.83;;;1.10;;
46613;SDS011;32338;50.430;6.806;2023-09-19T00:19:35;4.22;;;1.35;;
46613;SDS011;32338;50.430;6.806;2023-09-19T00:22:03;1.55;;;1.05;;
46613;SDS011;32338;50.430;6.806;2023-09-19T00:24:29;8.02;;;1.08;;
46613;SDS011;32338;50.430;6.806;2023-09-19T00:26:56;2.97;;;0.90;;
46613;SDS011;32338;50.430;6.806;2023-09-19T00:29:24;2.40;;;1.10;;
46613;SDS011;32338;50.430;6.806;2023-09-19T00:31:54;4.72;;;1.02;;
46613;SDS011;32338;50.430;6.806;2023-09-19T00:34:21;5.88;;;1.38;;
46613;SDS011;32338;50.430;6.806;2023-09-19T00:36:50;3.40;;;1.30;;
46613;SDS011;32338;50.430;6.806;2023-09-19T00:39:18;3.80;;;0.90;;
46613;SDS011;32338;50.430;6.806;2023-09-19T00:41:45;4.50;;;0.90;;
46613;SDS011;32338;50.430;6.806;2023-09-19T00:44:12;5.32;;;1.02;;
46613;SDS011;32338;50.430;6.806;2023-09-19T00:46:40;2.65;;;1.33;;
46613;SDS011;32338;50.430;6.806;2023-09-19T00:49:07;2.40;;;0.80;;
46613;SDS011;32338;50.430;6.806;2023-09-19T00:51:36;5.97;;;1.38;;
46613;SDS011;32338;50.430;6.806;2023-09-19T00:54:04;3.33;;;1.55;;
46613;SDS011;32338;50.430;6.806;2023-09-19T00:56:31;3.00;;;1.00;;
46613;SDS011;32338;50.430;6.806;2023-09-19T00:58:58;3.83;;;1.08;;
46613;SDS011;32338;50.430;6.806;2023-09-19T01:01:24;4.47;;;1.05;;
46613;SDS011;32338;50.430;6.806;2023-09-19T01:03:51;6.63;;;1.20;;
46613;SDS011;32338;50.430;6.806;2023-09-19T01:06:18;2.95;;;1.00;;
46613;SDS011;32338;50.430;6.806;2023-09-19T01:08:45;3.25;;;1.00;;
46613;SDS011;32338;50.430;6.806;2023-09-19T01:11:15;2.67;;;0.90;;
46613;SDS011;32338;50.430;6.806;2023-09-19T01:13:56;6.65;;;1.10;;
46613;SDS011;32338;50.430;6.806;2023-09-19T01:16:30;6.05;;;0.90;;
46613;SDS011;32338;50.430;6.806;2023-09-19T01:19:07;3.78;;;1.20;;
46613;SDS011;32338;50.430;6.806;2023-09-19T01:21:54;8.10;;;2.22;;
46613;SDS011;32338;50.430;6.806;2023-09-19T01:24:42;7.67;;;1.10;;
46613;SDS011;32338;50.430;6.806;2023-09-19T01:27:36;6.82;;;1.30;;
46613;SDS011;32338;50.430;6.806;2023-09-19T01:30:21;2.95;;;1.10;;
46613;SDS011;32338;50.430;6.806;2023-09-19T01:32:54;4.18;;;1.23;;
46613;SDS011;32338;50.430;6.806;2023-09-19T01:35:22;6.15;;;1.02;;
46613;SDS011;32338;50.430;6.806;2023-09-19T01:37:49;3.47;;;1.00;;
46613;SDS011;32338;50.430;6.806;2023-09-19T01:40:16;2.90;;;1.30;;
46613;SDS011;32338;50.430;6.806;2023-09-19T01:42:49;7.18;;;1.30;;
46613;SDS011;32338;50.430;6.806;2023-09-19T01:45:24;2.28;;;0.80;;
46613;SDS011;32338;50.430;6.806;2023-09-19T01:48:00;1.42;;;0.80;;
46613;SDS011;32338;50.430;6.806;2023-09-19T01:50:38;7.47;;;0.95;;
46613;SDS011;32338;50.430;6.806;2023-09-19T01:53:14;4.80;;;0.73;;
46613;SDS011;32338;50.430;6.806;2023-09-19T01:55:48;2.08;;;0.90;;
46613;SDS011;32338;50.430;6.806;2023-09-19T01:58:18;5.47;;;0.80;;
46613;SDS011;32338;50.430;6.806;2023-09-19T02:00:49;3.90;;;0.70;;
46613;SDS011;32338;50.430;6.806;2023-09-19T02:03:17;1.13;;;0.77;;
46613;SDS011;32338;50.430;6.806;2023-09-19T02:05:48;5.35;;;0.77;;
46613;SDS011;32338;50.430;6.806;2023-09-19T02:08:16;2.58;;;0.60;;
46613;SDS011;32338;50.430;6.806;2023-09-19T02:10:44;2.38;;;0.80;;
46613;SDS011;32338;50.430;6.806;2023-09-19T02:13:13;4.10;;;0.90;;
46613;SDS011;32338;50.430;6.806;2023-09-19T02:15:42;3.50;;;1.00;;
46613;SDS011;32338;50.430;6.806;2023-09-19T02:18:10;3.00;;;0.60;;
46613;SDS011;32338;50.430;6.806;2023-09-19T02:20:37;2.97;;;0.68;;
46613;SDS011;32338;50.430;6.806;2023-09-19T02:23:04;2.97;;;0.70;;
46613;SDS011;32338;50.430;6.806;2023-09-19T02:25:30;3.28;;;0.70;;
46613;SDS011;32338;50.430;6.806;2023-09-19T02:27:57;7.15;;;1.20;;
46613;SDS011;32338;50.430;6.806;2023-09-19T02:30:26;3.47;;;1.23;;
46613;SDS011;32338;50.430;6.806;2023-09-19T02:32:52;6.85;;;1.25;;
46613;SDS011;32338;50.430;6.806;2023-09-19T02:35:20;5.47;;;1.20;;
46613;SDS011;32338;50.430;6.806;2023-09-19T02:37:46;3.17;;;1.00;;
46613;SDS011;32338;50.430;6.806;2023-09-19T02:40:13;10.05;;;1.40;;
46613;SDS011;32338;50.430;6.806;2023-09-19T02:42:45;4.95;;;1.45;;
46613;SDS011;32338;50.430;6.806;2023-09-19T02:45:14;7.80;;;1.10;;
46613;SDS011;32338;50.430;6.806;2023-09-19T02:47:41;2.05;;;1.02;;
46613;SDS011;32338;50.430;6.806;2023-09-19T02:50:08;7.38;;;1.73;;
46613;SDS011;32338;50.430;6.806;2023-09-19T02:52:37;12.20;;;1.55;;
46613;SDS011;32338;50.430;6.806;2023-09-19T02:55:04;15.60;;;1.60;;
46613;SDS011;32338;50.430;6.806;2023-09-19T02:57:31;8.25;;;1.55;;
46613;SDS011;32338;50.430;6.806;2023-09-19T02:59:59;7.93;;;1.50;;
46613;SDS011;32338;50.430;6.806;2023-09-19T03:02:27;7.47;;;1.45;;
46613;SDS011;32338;50.430;6.806;2023-09-19T03:04:54;7.00;;;1.70;;
46613;SDS011;32338;50.430;6.806;2023-09-19T03:07:21;8.02;;;1.50;;
46613;SDS011;32338;50.430;6.806;2023-09-19T03:09:51;9.90;;;1.65;;
46613;SDS011;32338;50.430;6.806;2023-09-19T03:12:18;5.63;;;1.85;;
46613;SDS011;32338;50.430;6.806;2023-09-19T03:14:45;8.20;;;1.63;;
46613;SDS011;32338;50.430;6.806;2023-09-19T03:17:12;14.05;;;2.25;;
46613;SDS011;32338;50.430;6.806;2023-09-19T03:19:39;5.07;;;1.50;;
46613;SDS011;32338;50.430;6.806;2023-09-19T03:22:06;7.38;;;1.65;;
46613;SDS011;32338;50.430;6.806;2023-09-19T03:24:33;10.05;;;1.48;;
46613;SDS011;32338;50.430;6.806;2023-09-19T03:27:03;6.57;;;1.40;;
46613;SDS011;32338;50.430;6.806;2023-09-19T03:29:30;7.10;;;1.65;;
46613;SDS011;32338;50.430;6.806;2023-09-19T03:31:57;10.20;;;1.20;;
46613;SDS011;32338;50.430;6.806;2023-09-19T03:34:24;13.55;;;1.55;;
46613;SDS011;32338;50.430;6.806;2023-09-19T03:36:50;9.25;;;1.83;;
46613;SDS011;32338;50.430;6.806;2023-09-19T03:39:17;12.43;;;1.75;;
46613;SDS011;32338;50.430;6.806;2023-09-19T03:41:44;7.47;;;1.48;;
46613;SDS011;32338;50.430;6.806;2023-09-19T03:44:12;9.32;;;1.70;;
46613;SDS011;32338;50.430;6.806;2023-09-19T03:46:40;7.65;;;1.25;;
46613;SDS011;32338;50.430;6.806;2023-09-19T03:49:06;7.38;;;1.35;;
46613;SDS011;32338;50.430;6.806;2023-09-19T03:51:33;9.63;;;1.75;;
46613;SDS011;32338;50.430;6.806;2023-09-19T03:54:00;7.93;;;1.50;;
46613;SDS011;32338;50.430;6.806;2023-09-19T03:56:27;7.68;;;1.90;;
46613;SDS011;32338;50.430;6.806;2023-09-19T03:58:54;11.68;;;1.85;;
46613;SDS011;32338;50.430;6.806;2023-09-19T04:01:22;5.95;;;1.33;;
46613;SDS011;32338;50.430;6.806;2023-09-19T04:03:49;14.00;;;1.83;;
46613;SDS011;32338;50.430;6.806;2023-09-19T04:06:17;11.43;;;1.88;;
46613;SDS011;32338;50.430;6.806;2023-09-19T04:08:43;7.68;;;1.80;;
46613;SDS011;32338;50.430;6.806;2023-09-19T04:11:11;8.25;;;1.83;;
46613;SDS011;32338;50.430;6.806;2023-09-19T04:13:38;9.13;;;1.67;;
46613;SDS011;32338;50.430;6.806;2023-09-19T04:16:04;9.30;;;1.75;;
46613;SDS011;32338;50.430;6.806;2023-09-19T04:18:33;10.80;;;1.85;;
46613;SDS011;32338;50.430;6.806;2023-09-19T04:21:02;10.05;;;1.70;;
46613;SDS011;32338;50.430;6.806;2023-09-19T04:23:30;7.70;;;1.50;;
46613;SDS011;32338;50.430;6.806;2023-09-19T04:25:57;4.90;;;1.45;;
46613;SDS011;32338;50.430;6.806;2023-09-19T04:28:23;10.20;;;1.70;;
46613;SDS011;32338;50.430;6.806;2023-09-19T04:30:50;6.53;;;1.35;;
46613;SDS011;32338;50.430;6.806;2023-09-19T04:33:16;4.57;;;1.30;;
46613;SDS011;32338;50.430;6.806;2023-09-19T04:35:45;5.70;;;1.27;;
46613;SDS011;32338;50.430;6.806;2023-09-19T04:38:14;9.43;;;1.60;;
46613;SDS011;32338;50.430;6.806;2023-09-19T04:40:41;7.10;;;1.77;;
46613;SDS011;32338;50.430;6.806;2023-09-19T04:43:08;6.97;;;1.38;;
46613;SDS011;32338;50.430;6.806;2023-09-19T04:45:34;10.45;;;2.03;;
46613;SDS011;32338;50.430;6.806;2023-09-19T04:48:01;10.65;;;1.75;;
46613;SDS011;32338;50.430;6.806;2023-09-19T04:50:28;16.02;;;1.75;;
46613;SDS011;32338;50.430;6.806;2023-09-19T04:52:56;8.20;;;2.17;;
46613;SDS011;32338;50.430;6.806;2023-09-19T04:55:22;7.18;;;1.40;;
46613;SDS011;32338;50.430;6.806;2023-09-19T04:57:49;10.30;;;1.73;;
46613;SDS011;32338;50.430;6.806;2023-09-19T05:00:18;6.45;;;1.55;;
46613;SDS011;32338;50.430;6.806;2023-09-19T05:02:49;12.77;;;2.28;;
46613;SDS011;32338;50.430;6.806;2023-09-19T05:05:16;10.20;;;1.55;;
46613;SDS011;32338;50.430;6.806;2023-09-19T05:07:44;8.80;;;1.80;;
46613;SDS011;32338;50.430;6.806;2023-09-19T05:10:12;12.98;;;1.67;;
46613;SDS011;32338;50.430;6.806;2023-09-19T05:12:39;10.95;;;2.00;;
46613;SDS011;32338;50.430;6.806;2023-09-19T05:15:06;8.52;;;1.63;;
46613;SDS011;32338;50.430;6.806;2023-09-19T05:17:33;9.15;;;1.42;;
46613;SDS011;32338;50.430;6.806;2023-09-19T05:20:01;8.20;;;1.50;;
46613;SDS011;32338;50.430;6.806;2023-09-19T05:22:40;9.23;;;1.73;;
46613;SDS011;32338;50.430;6.806;2023-09-19T05:25:08;13.65;;;1.65;;
46613;SDS011;32338;50.430;6.806;2023-09-19T05:27:36;7.63;;;1.67;;
46613;SDS011;32338;50.430;6.806;2023-09-19T05:30:03;12.18;;;1.67;;
46613;SDS011;32338;50.430;6.806;2023-09-19T05:32:32;10.90;;;2.10;;
46613;SDS011;32338;50.430;6.806;2023-09-19T05:34:58;9.35;;;1.50;;
46613;SDS011;32338;50.430;6.806;2023-09-19T05:37:25;11.10;;;2.00;;
46613;SDS011;32338;50.430;6.806;2023-09-19T05:39:52;6.50;;;1.58;;
46613;SDS011;32338;50.430;6.806;2023-09-19T05:42:19;8.80;;;1.52;;
46613;SDS011;32338;50.430;6.806;2023-09-19T05:44:47;9.68;;;1.60;;
46613;SDS011;32338;50.430;6.806;2023-09-19T05:47:13;9.38;;;1.60;;
46613;SDS011;32338;50.430;6.806;2023-09-19T05:49:40;9.77;;;2.10;;
46613;SDS011;32338;50.430;6.806;2023-09-19T05:52:06;7.93;;;1.73;;
46613;SDS011;32338;50.430;6.806;2023-09-19T05:54:34;9.32;;;2.05;;
46613;SDS011;32338;50.430;6.806;2023-09-19T05:57:02;11.30;;;1.75;;
46613;SDS011;32338;50.430;6.806;2023-09-19T05:59:29;5.38;;;1.27;;
46613;SDS011;32338;50.430;6.806;2023-09-19T06:01:57;12.77;;;1.70;;
46613;SDS011;32338;50.430;6.806;2023-09-19T06:04:24;12.10;;;1.77;;
46613;SDS011;32338;50.430;6.806;2023-09-19T06:06:51;6.28;;;1.40;;
46613;SDS011;32338;50.430;6.806;2023-09-19T06:09:17;7.90;;;1.50;;
46613;SDS011;32338;50.430;6.806;2023-09-19T06:11:44;8.85;;;1.77;;
46613;SDS011;32338;50.430;6.806;2023-09-19T06:14:11;12.10;;;1.85;;
46613;SDS011;32338;50.430;6.806;2023-09-19T06:16:38;10.48;;;1.63;;
46613;SDS011;32338;50.430;6.806;2023-09-19T06:19:07;10.43;;;1.67;;
46613;SDS011;32338;50.430;6.806;2023-09-19T06:21:35;11.13;;;1.95;;
46613;SDS011;32338;50.430;6.806;2023-09-19T06:24:02;13.38;;;1.83;;
46613;SDS011;32338;50.430;6.806;2023-09-19T06:26:29;11.02;;;2.42;;
46613;SDS011;32338;50.430;6.806;2023-09-19T06:28:55;9.10;;;1.98;;
46613;SDS011;32338;50.430;6.806;2023-09-19T06:31:22;16.75;;;2.20;;
46613;SDS011;32338;50.430;6.806;2023-09-19T06:33:51;16.35;;;2.25;;
46613;SDS011;32338;50.430;6.806;2023-09-19T06:36:19;10.88;;;1.73;;
46613;SDS011;32338;50.430;6.806;2023-09-19T06:38:46;8.38;;;2.08;;
46613;SDS011;32338;50.430;6.806;2023-09-19T06:41:16;9.73;;;1.40;;
46613;SDS011;32338;50.430;6.806;2023-09-19T06:43:43;15.70;;;1.60;;
46613;SDS011;32338;50.430;6.806;2023-09-19T06:46:10;18.38;;;2.60;;
46613;SDS011;32338;50.430;6.806;2023-09-19T06:48:37;10.82;;;1.85;;
46613;SDS011;32338;50.430;6.806;2023-09-19T06:51:04;7.75;;;1.50;;
46613;SDS011;32338;50.430;6.806;2023-09-19T06:53:32;9.93;;;1.67;;
46613;SDS011;32338;50.430;6.806;2023-09-19T06:56:00;16.02;;;1.80;;
46613;SDS011;32338;50.430;6.806;2023-09-19T06:58:27;12.68;;;2.00;;
46613;SDS011;32338;50.430;6.806;2023-09-19T07:00:54;10.27;;;1.90;;
46613;SDS011;32338;50.430;6.806;2023-09-19T07:03:21;15.23;;;1.65;;
46613;SDS011;32338;50.430;6.806;2023-09-19T07:05:51;9.90;;;1.67;;
46613;SDS011;32338;50.430;6.806;2023-09-19T07:08:21;9.77;;;1.60;;
46613;SDS011;32338;50.430;6.806;2023-09-19T07:10:49;11.93;;;2.08;;
46613;SDS011;32338;50.430;6.806;2023-09-19T07:13:19;6.88;;;1.80;;
46613;SDS011;32338;50.430;6.806;2023-09-19T07:15:45;9.88;;;1.55;;
46613;SDS011;32338;50.430;6.806;2023-09-19T07:18:13;10.68;;;1.58;;
46613;SDS011;32338;50.430;6.806;2023-09-19T07:20:41;11.55;;;1.58;;
46613;SDS011;32338;50.430;6.806;2023-09-19T07:23:10;10.75;;;1.80;;
46613;SDS011;32338;50.430;6.806;2023-09-19T07:25:38;11.98;;;1.65;;
46613;SDS011;32338;50.430;6.806;2023-09-19T07:28:06;11.13;;;2.03;;
46613;SDS011;32338;50.430;6.806;2023-09-19T07:30:35;15.05;;;1.92;;
46613;SDS011;32338;50.430;6.806;2023-09-19T07:33:04;10.52;;;1.73;;
46613;SDS011;32338;50.430;6.806;2023-09-19T07:35:31;10.48;;;1.70;;
46613;SDS011;32338;50.430;6.806;2023-09-19T07:37:58;7.88;;;1.65;;
46613;SDS011;32338;50.430;6.806;2023-09-19T07:40:26;9.15;;;1.65;;
46613;SDS011;32338;50.430;6.806;2023-09-19T07:42:53;7.07;;;1.70;;
46613;SDS011;32338;50.430;6.806;2023-09-19T07:45:22;10.10;;;1.30;;
46613;SDS011;32338;50.430;6.806;2023-09-19T07:47:50;13.88;;;1.83;;
46613;SDS011;32338;50.430;6.806;2023-09-19T07:50:17;7.15;;;1.73;;
46613;SDS011;32338;50.430;6.806;2023-09-19T07:52:45;8.18;;;1.52;;
46613;SDS011;32338;50.430;6.806;2023-09-19T07:55:12;10.30;;;1.77;;
46613;SDS011;32338;50.430;6.806;2023-09-19T07:57:41;9.10;;;1.40;;
46613;SDS011;32338;50.430;6.806;2023-09-19T08:00:09;10.80;;;1.80;;
46613;SDS011;32338;50.430;6.806;2023-09-19T08:02:38;10.05;;;1.65;;
46613;SDS011;32338;50.430;6.806;2023-09-19T08:05:05;14.25;;;2.17;;
46613;SDS011;32338;50.430;6.806;2023-09-19T08:07:34;6.97;;;1.50;;
46613;SDS011;32338;50.430;6.806;2023-09-19T08:10:01;11.25;;;1.77;;
46613;SDS011;32338;50.430;6.806;2023-09-19T08:12:28;9.60;;;1.65;;
46613;SDS011;32338;50.430;6.806;2023-09-19T08:14:56;7.80;;;1.98;;
46613;SDS011;32338;50.430;6.806;2023-09-19T08:17:22;8.68;;;1.88;;
46613;SDS011;32338;50.430;6.806;2023-09-19T08:19:50;10.32;;;1.65;;
46613;SDS011;32338;50.430;6.806;2023-09-19T08:22:18;9.52;;;1.75;;
46613;SDS011;32338;50.430;6.806;2023-09-19T08:24:45;11.45;;;2.08;;
46613;SDS011;32338;50.430;6.806;2023-09-19T08:27:13;8.50;;;1.40;;
46613;SDS011;32338;50.430;6.806;2023-09-19T08:29:39;6.28;;;1.48;;
46613;SDS011;32338;50.430;6.806;2023-09-19T08:32:07;7.00;;;1.58;;
46613;SDS011;32338;50.430;6.806;2023-09-19T08:34:34;13.13;;;1.40;;
46613;SDS011;32338;50.430;6.806;2023-09-19T08:37:04;8.63;;;1.55;;
46613;SDS011;32338;50.430;6.806;2023-09-19T08:39:31;9.25;;;1.85;;
46613;SDS011;32338;50.430;6.806;2023-09-19T08:42:00;9.10;;;1.27;;
46613;SDS011;32338;50.430;6.806;2023-09-19T08:44:28;6.80;;;1.42;;
46613;SDS011;32338;50.430;6.806;2023-09-19T08:46:55;10.57;;;1.75;;
46613;SDS011;32338;50.430;6.806;2023-09-19T08:49:33;6.95;;;1.50;;
46613;SDS011;32338;50.430;6.806;2023-09-19T08:52:10;6.85;;;1.38;;
46613;SDS011;32338;50.430;6.806;2023-09-19T08:54:46;5.45;;;1.73;;
46613;SDS011;32338;50.430;6.806;2023-09-19T08:57:14;7.07;;;1.60;;
46613;SDS011;32338;50.430;6.806;2023-09-19T08:59:46;13.13;;;2.10;;
46613;SDS011;32338;50.430;6.806;2023-09-19T09:02:16;10.63;;;1.80;;
46613;SDS011;32338;50.430;6.806;2023-09-19T09:04:44;10.07;;;1.48;;
46613;SDS011;32338;50.430;6.806;2023-09-19T09:07:14;6.78;;;1.35;;
46613;SDS011;32338;50.430;6.806;2023-09-19T09:09:41;8.52;;;1.45;;
46613;SDS011;32338;50.430;6.806;2023-09-19T09:12:10;9.52;;;1.67;;
46613;SDS011;32338;50.430;6.806;2023-09-19T09:14:38;6.20;;;1.85;;
46613;SDS011;32338;50.430;6.806;2023-09-19T09:17:05;7.82;;;1.20;;
46613;SDS011;32338;50.430;6.806;2023-09-19T09:19:32;11.30;;;1.40;;
46613;SDS011;32338;50.430;6.806;2023-09-19T09:22:05;9.55;;;1.52;;
46613;SDS011;32338;50.430;6.806;2023-09-19T09:24:34;8.30;;;1.90;;
46613;SDS011;32338;50.430;6.806;2023-09-19T09:27:03;8.10;;;1.58;;
46613;SDS011;32338;50.430;6.806;2023-09-19T09:29:42;6.05;;;1.52;;
46613;SDS011;32338;50.430;6.806;2023-09-19T09:32:18;11.48;;;1.70;;
46613;SDS011;32338;50.430;6.806;2023-09-19T09:34:47;5.78;;;1.75;;
46613;SDS011;32338;50.430;6.806;2023-09-19T09:37:15;9.63;;;1.33;;
46613;SDS011;32338;50.430;6.806;2023-09-19T09:39:49;8.43;;;1.70;;
46613;SDS011;32338;50.430;6.806;2023-09-19T09:42:31;8.25;;;1.38;;
46613;SDS011;32338;50.430;6.806;2023-09-19T09:47:40;6.95;;;1.55;;
46613;SDS011;32338;50.430;6.806;2023-09-19T09:50:23;9.80;;;2.30;;
46613;SDS011;32338;50.430;6.806;2023-09-19T09:52:54;6.07;;;1.35;;
46613;SDS011;32338;50.430;6.806;2023-09-19T09:55:27;7.47;;;1.20;;
46613;SDS011;32338;50.430;6.806;2023-09-19T09:58:03;5.57;;;1.75;;
46613;SDS011;32338;50.430;6.806;2023-09-19T10:00:52;5.93;;;1.42;;
46613;SDS011;32338;50.430;6.806;2023-09-19T10:03:23;11.05;;;1.65;;
46613;SDS011;32338;50.430;6.806;2023-09-19T10:05:57;7.22;;;1.55;;
46613;SDS011;32338;50.430;6.806;2023-09-19T10:08:33;9.02;;;1.60;;
46613;SDS011;32338;50.430;6.806;2023-09-19T10:11:03;7.00;;;1.38;;
46613;SDS011;32338;50.430;6.806;2023-09-19T10:13:44;7.80;;;1.33;;
46613;SDS011;32338;50.430;6.806;2023-09-19T10:16:12;8.70;;;1.50;;
46613;SDS011;32338;50.430;6.806;2023-09-19T10:18:44;5.55;;;1.80;;
46613;SDS011;32338;50.430;6.806;2023-09-19T10:21:15;6.72;;;1.40;;
46613;SDS011;32338;50.430;6.806;2023-09-19T10:23:47;6.63;;;1.50;;
46613;SDS011;32338;50.430;6.806;2023-09-19T10:26:18;4.45;;;1.13;;
46613;SDS011;32338;50.430;6.806;2023-09-19T10:28:49;5.63;;;1.40;;
46613;SDS011;32338;50.430;6.806;2023-09-19T10:31:18;4.95;;;1.30;;
46613;SDS011;32338;50.430;6.806;2023-09-19T10:33:49;10.63;;;1.77;;
46613;SDS011;32338;50.430;6.806;2023-09-19T10:36:16;9.30;;;1.50;;
46613;SDS011;32338;50.430;6.806;2023-09-19T10:38:46;4.85;;;1.27;;
46613;SDS011;32338;50.430;6.806;2023-09-19T10:41:19;4.53;;;1.02;;
46613;SDS011;32338;50.430;6.806;2023-09-19T10:43:48;6.93;;;1.13;;
46613;SDS011;32338;50.430;6.806;2023-09-19T10:46:19;5.55;;;1.35;;
46613;SDS011;32338;50.430;6.806;2023-09-19T10:48:46;6.45;;;1.38;;
46613;SDS011;32338;50.430;6.806;2023-09-19T10:51:15;8.50;;;1.75;;
46613;SDS011;32338;50.430;6.806;2023-09-19T10:53:49;6.03;;;1.13;;
46613;SDS011;32338;50.430;6.806;2023-09-19T10:56:21;10.18;;;1.48;;
46613;SDS011;32338;50.430;6.806;2023-09-19T10:58:54;7.07;;;1.25;;
46613;SDS011;32338;50.430;6.806;2023-09-19T11:01:44;8.73;;;1.27;;
46613;SDS011;32338;50.430;6.806;2023-09-19T11:04:23;4.90;;;1.20;;
46613;SDS011;32338;50.430;6.806;2023-09-19T11:07:00;7.10;;;1.48;;
46613;SDS011;32338;50.430;6.806;2023-09-19T11:09:45;6.95;;;1.20;;
46613;SDS011;32338;50.430;6.806;2023-09-19T11:27:09;9.98;;;1.38;;
46613;SDS011;32338;50.430;6.806;2023-09-19T11:29:38;9.20;;;1.50;;
46613;SDS011;32338;50.430;6.806;2023-09-19T11:32:06;8.00;;;1.35;;
46613;SDS011;32338;50.430;6.806;2023-09-19T11:34:41;4.13;;;1.13;;
46613;SDS011;32338;50.430;6.806;2023-09-19T11:40:38;6.05;;;0.90;;
46613;SDS011;32338;50.430;6.806;2023-09-19T11:43:29;5.68;;;1.30;;
46613;SDS011;32338;50.430;6.806;2023-09-19T11:46:05;5.97;;;1.13;;
46613;SDS011;32338;50.430;6.806;2023-09-19T11:48:32;4.32;;;0.98;;
46613;SDS011;32338;50.430;6.806;2023-09-19T11:53:53;3.78;;;1.25;;
46613;SDS011;32338;50.430;6.806;2023-09-19T11:56:22;3.05;;;1.08;;
46613;SDS011;32338;50.430;6.806;2023-09-19T11:58:53;7.15;;;1.10;;
46613;SDS011;32338;50.430;6.806;2023-09-19T12:01:21;9.95;;;1.10;;
46613;SDS011;32338;50.430;6.806;2023-09-19T12:03:52;4.82;;;1.30;;
46613;SDS011;32338;50.430;6.806;2023-09-19T12:06:20;4.68;;;0.80;;
46613;SDS011;32338;50.430;6.806;2023-09-19T12:08:48;5.78;;;1.10;;
46613;SDS011;32338;50.430;6.806;2023-09-19T12:11:16;4.15;;;0.90;;
46613;SDS011;32338;50.430;6.806;2023-09-19T12:13:47;2.30;;;0.90;;
46613;SDS011;32338;50.430;6.806;2023-09-19T12:16:14;5.55;;;1.20;;
46613;SDS011;32338;50.430;6.806;2023-09-19T12:18:42;3.38;;;0.90;;
46613;SDS011;32338;50.430;6.806;2023-09-19T12:21:21;4.10;;;1.08;;
46613;SDS011;32338;50.430;6.806;2023-09-19T12:23:56;4.38;;;0.82;;
46613;SDS011;32338;50.430;6.806;2023-09-19T12:26:36;6.13;;;0.90;;
46613;SDS011;32338;50.430;6.806;2023-09-19T12:29:06;6.88;;;1.00;;
46613;SDS011;32338;50.430;6.806;2023-09-19T12:31:46;3.17;;;1.23;;
46613;SDS011;32338;50.430;6.806;2023-09-19T12:34:15;3.83;;;0.70;;
46613;SDS011;32338;50.430;6.806;2023-09-19T12:36:45;3.85;;;1.00;;
46613;SDS011;32338;50.430;6.806;2023-09-19T12:39:21;2.55;;;0.73;;
46613;SDS011;32338;50.430;6.806;2023-09-19T12:41:49;4.10;;;0.80;;
46613;SDS011;32338;50.430;6.806;2023-09-19T12:44:19;6.07;;;0.80;;
46613;SDS011;32338;50.430;6.806;2023-09-19T12:46:49;3.72;;;0.98;;
46613;SDS011;32338;50.430;6.806;2023-09-19T12:49:16;3.85;;;0.90;;
46613;SDS011;32338;50.430;6.806;2023-09-19T12:51:45;9.10;;;0.90;;
46613;SDS011;32338;50.430;6.806;2023-09-19T12:54:12;4.07;;;0.90;;
46613;SDS011;32338;50.430;6.806;2023-09-19T12:56:40;5.40;;;0.95;;
46613;SDS011;32338;50.430;6.806;2023-09-19T12:59:09;3.15;;;0.90;;
46613;SDS011;32338;50.430;6.806;2023-09-19T13:01:40;4.38;;;1.08;;
46613;SDS011;32338;50.430;6.806;2023-09-19T13:04:14;2.28;;;0.80;;
46613;SDS011;32338;50.430;6.806;2023-09-19T13:06:44;5.80;;;0.80;;
46613;SDS011;32338;50.430;6.806;2023-09-19T13:09:13;4.65;;;0.90;;
46613;SDS011;32338;50.430;6.806;2023-09-19T13:11:41;6.82;;;1.70;;
46613;SDS011;32338;50.430;6.806;2023-09-19T13:14:16;4.28;;;0.90;;
46613;SDS011;32338;50.430;6.806;2023-09-19T13:19:35;4.03;;;1.45;;
46613;SDS011;32338;50.430;6.806;2023-09-19T13:22:02;4.63;;;0.98;;
46613;SDS011;32338;50.430;6.806;2023-09-19T13:24:29;5.63;;;1.58;;
46613;SDS011;32338;50.430;6.806;2023-09-19T13:26:56;1.98;;;0.73;;
46613;SDS011;32338;50.430;6.806;2023-09-19T13:29:23;3.72;;;0.90;;
46613;SDS011;32338;50.430;6.806;2023-09-19T13:31:49;6.03;;;1.00;;
46613;SDS011;32338;50.430;6.806;2023-09-19T13:34:20;3.78;;;0.82;;
46613;SDS011;32338;50.430;6.806;2023-09-19T13:36:48;2.38;;;0.80;;
46613;SDS011;32338;50.430;6.806;2023-09-19T13:39:15;2.83;;;0.90;;
46613;SDS011;32338;50.430;6.806;2023-09-19T13:41:42;3.67;;;0.77;;
46613;SDS011;32338;50.430;6.806;2023-09-19T13:44:11;3.20;;;0.77;;
46613;SDS011;32338;50.430;6.806;2023-09-19T13:46:39;4.95;;;1.10;;
46613;SDS011;32338;50.430;6.806;2023-09-19T13:49:10;2.20;;;0.73;;
46613;SDS011;32338;50.430;6.806;2023-09-19T13:51:38;2.53;;;0.73;;
46613;SDS011;32338;50.430;6.806;2023-09-19T13:54:08;1.98;;;0.65;;
46613;SDS011;32338;50.430;6.806;2023-09-19T13:56:35;2.13;;;0.68;;
46613;SDS011;32338;50.430;6.806;2023-09-19T13:59:02;4.40;;;1.02;;
46613;SDS011;32338;50.430;6.806;2023-09-19T14:01:29;2.13;;;0.80;;
46613;SDS011;32338;50.430;6.806;2023-09-19T14:03:55;2.70;;;0.60;;
46613;SDS011;32338;50.430;6.806;2023-09-19T14:06:23;3.58;;;0.80;;
46613;SDS011;32338;50.430;6.806;2023-09-19T14:08:51;5.90;;;1.00;;
46613;SDS011;32338;50.430;6.806;2023-09-19T14:11:18;4.07;;;0.70;;
46613;SDS011;32338;50.430;6.806;2023-09-19T14:13:45;2.28;;;0.65;;
46613;SDS011;32338;50.430;6.806;2023-09-19T14:16:13;2.75;;;0.50;;
46613;SDS011;32338;50.430;6.806;2023-09-19T14:18:42;2.38;;;0.70;;
46613;SDS011;32338;50.430;6.806;2023-09-19T14:21:10;2.03;;;0.68;;
46613;SDS011;32338;50.430;6.806;2023-09-19T14:23:37;1.85;;;0.80;;
46613;SDS011;32338;50.430;6.806;2023-09-19T14:26:05;2.08;;;0.70;;
46613;SDS011;32338;50.430;6.806;2023-09-19T14:28:32;3.03;;;0.60;;
46613;SDS011;32338;50.430;6.806;2023-09-19T14:31:03;3.30;;;0.77;;
46613;SDS011;32338;50.430;6.806;2023-09-19T14:33:31;2.90;;;0.90;;
46613;SDS011;32338;50.430;6.806;2023-09-19T14:35:57;6.32;;;0.90;;
46613;SDS011;32338;50.430;6.806;2023-09-19T14:38:24;1.98;;;0.80;;
46613;SDS011;32338;50.430;6.806;2023-09-19T14:40:58;3.63;;;0.75;;
46613;SDS011;32338;50.430;6.806;2023-09-19T14:43:27;2.38;;;0.85;;
46613;SDS011;32338;50.430;6.806;2023-09-19T14:45:55;2.97;;;0.70;;
46613;SDS011;32338;50.430;6.806;2023-09-19T14:48:22;4.65;;;0.77;;
46613;SDS011;32338;50.430;6.806;2023-09-19T14:50:50;2.17;;;0.77;;
46613;SDS011;32338;50.430;6.806;2023-09-19T14:53:17;6.40;;;0.80;;
46613;SDS011;32338;50.430;6.806;2023-09-19T14:55:43;4.28;;;0.73;;
46613;SDS011;32338;50.430;6.806;2023-09-19T14:58:12;5.03;;;0.90;;
46613;SDS011;32338;50.430;6.806;2023-09-19T15:00:40;4.90;;;0.77;;
46613;SDS011;32338;50.430;6.806;2023-09-19T15:03:10;4.00;;;1.20;;
46613;SDS011;32338;50.430;6.806;2023-09-19T15:05:36;5.53;;;0.68;;
46613;SDS011;32338;50.430;6.806;2023-09-19T15:08:04;2.47;;;0.93;;
46613;SDS011;32338;50.430;6.806;2023-09-19T15:10:31;3.83;;;0.73;;
46613;SDS011;32338;50.430;6.806;2023-09-19T15:12:58;1.88;;;0.60;;
46613;SDS011;32338;50.430;6.806;2023-09-19T15:15:25;3.67;;;0.60;;
46613;SDS011;32338;50.430;6.806;2023-09-19T15:17:53;1.52;;;0.60;;
46613;SDS011;32338;50.430;6.806;2023-09-19T15:20:20;5.68;;;0.80;;
46613;SDS011;32338;50.430;6.806;2023-09-19T15:22:46;3.28;;;1.20;;
46613;SDS011;32338;50.430;6.806;2023-09-19T15:25:13;4.65;;;1.00;;